Tupelo, Mississippi
Current Conditions -  °F | °C
As of 5:53 PM on Thursday 27 Nov 2014 (Local Time) from KTUP Reporting Station
Clear Clear  
Wind Chill: 33°   Ceiling: Unl
Heat Index: 37°   Visibility: 10mi
Dew Point: 27°   Wind: 5mph
Humidity: 67%   Direction: 30°NNE
Pressure: 30.48"   Gusts: NA
Location:  34.26°N, 88.71°W
Report Text: KTUP 272353Z 03004KT 10SM CLR 03/M03 A3048 RMK AO2 SLP321 T00281028 10072 20022 51008 $
Loading
Personal Weather Stations






























Interactive Weather Map New forecast layout! Learn more

10-Day Weather Forecast

Advertisements
Track Severe Weather on mobile